»·PEaware :: N822SA KBFL-KSBP

N822SA :: KBFL-KSBP

FLIGHT INFORMATION

Flight Status: Arrived
Operator: Privately registered:
United States
More flights under this callsign
Pilot: Ryan P. (15760)
Aircraft: DIAMOND DA-42 TWINSTAR
(DA42)
More flights by this aircraft type
Origin: KBFL Meadows
United States
Destination: KSBP San Luis Co Regl
United States
More flights between these airports :: More routes between these airports
Route: +EHF MQO
File this flight plan on PilotEdge
Remarks:
Altitude:
(Current/Filed)
6,000ft
Speed:
(Current/Filed)
110kts
Departed: 19-Jun-17 03:58 PM
Arrived: 19-Jun-17 04:49 PM
Distance/Time
Traveled:
78nm/0:51
Distance/Time
To Go:
Arrived

Flight Plot

Page will automatically refresh every two minutes.

Flight plan parsing failed; only flown route is shown


Map Options




Map Legend


Flown Route
Filed Route
Departure Airport
Arrival Airport
Navaid (VOR, NDB)
Fix

Horizontal Profiles

Position Reports

Time Latitude Longitude Heading Altitude Ground
Speed
19-Jun-17 15:59 35.564329 -119.140532 336 3164ft 100kts
19-Jun-17 16:00 35.586112 -119.159229 276 3158ft 100kts
19-Jun-17 16:01 35.565902 -119.167809 153 3164ft 100kts
19-Jun-17 16:02 35.543221 -119.148323 144 3267ft 93kts
19-Jun-17 16:03 35.523620 -119.131169 144 3738ft 85kts
19-Jun-17 16:05 35.506243 -119.116075 144 4241ft 79kts
19-Jun-17 16:06 35.488140 -119.100393 144 4736ft 80kts
19-Jun-17 16:07 35.469930 -119.084520 136 5201ft 80kts
19-Jun-17 16:08 35.480250 -119.069743 354 5627ft 81kts
19-Jun-17 16:09 35.498852 -119.071952 354 5923ft 81kts
19-Jun-17 16:10 35.514050 -119.085381 255 6168ft 84kts
19-Jun-17 16:11 35.501448 -119.111554 226 6166ft 95kts
19-Jun-17 16:12 35.483084 -119.135344 234 6163ft 96kts
19-Jun-17 16:13 35.479976 -119.167685 263 6164ft 96kts
19-Jun-17 16:14 35.475799 -119.198574 262 6001ft 113kts
19-Jun-17 16:15 35.470336 -119.235545 263 5976ft 108kts
19-Jun-17 16:16 35.453332 -119.359707 263 5977ft 107kts
19-Jun-17 16:17 35.425849 -119.555279 264 5976ft 107kts
19-Jun-17 16:18 35.396194 -119.774797 261 5977ft 109kts
19-Jun-17 16:19 35.375439 -119.914123 263 6053ft 107kts
19-Jun-17 16:20 35.372623 -119.944425 259 6068ft 83kts
19-Jun-17 16:21 35.369115 -119.972233 257 6087ft 82kts
19-Jun-17 16:22 35.365401 -119.999941 256 6104ft 82kts
19-Jun-17 16:23 35.347867 -120.015773 211 6108ft 82kts
19-Jun-17 16:24 35.329043 -120.031231 218 6106ft 81kts
19-Jun-17 16:25 35.310520 -120.047320 218 6105ft 81kts
19-Jun-17 16:26 35.290098 -120.058313 225 6100ft 79kts
19-Jun-17 16:27 35.268790 -120.055629 220 6105ft 80kts
19-Jun-17 16:28 35.258970 -120.080065 231 6105ft 81kts
19-Jun-17 16:29 35.242561 -120.099143 221 6057ft 85kts
19-Jun-17 16:30 35.224230 -120.116647 219 6026ft 82kts
19-Jun-17 16:31 35.205926 -120.133560 218 6028ft 82kts
19-Jun-17 16:32 35.187649 -120.150362 218 6027ft 82kts
19-Jun-17 16:33 35.169315 -120.167179 218 6026ft 82kts
19-Jun-17 16:34 35.151008 -120.183944 218 6026ft 82kts
19-Jun-17 16:35 35.132677 -120.200705 218 6025ft 82kts
19-Jun-17 16:36 35.118270 -120.223119 269 5648ft 98kts
19-Jun-17 16:37 35.119123 -120.254326 267 5525ft 86kts
19-Jun-17 16:38 35.119501 -120.282960 266 5544ft 84kts
19-Jun-17 16:39 35.119742 -120.311625 266 5542ft 84kts
19-Jun-17 16:40 35.119947 -120.340275 266 5481ft 89kts
19-Jun-17 16:41 35.119828 -120.371037 268 4609ft 91kts
19-Jun-17 16:42 35.119614 -120.398908 268 4231ft 70kts
19-Jun-17 16:43 35.119696 -120.422629 269 4243ft 78kts
19-Jun-17 16:44 35.125350 -120.449134 304 4108ft 95kts
19-Jun-17 16:45 35.140932 -120.474209 303 3404ft 91kts
19-Jun-17 16:46 35.156416 -120.498583 302 2906ft 83kts
19-Jun-17 16:47 35.173086 -120.527302 305 2607ft 119kts
19-Jun-17 16:48 35.191815 -120.561358 305 1833ft 121kts
19-Jun-17 16:49 35.210881 -120.594808 307 1108ft 111kts
19-Jun-17 16:50 35.224931 -120.617898 305 548ft 76kts
19-Jun-17 16:51 35.235262 -120.637171 302 214ft 42kts
19-Jun-17 16:52 35.237503 -120.639920 22 214ft 0kts
19-Jun-17 16:53 35.237505 -120.639918 19 214ft 0kts
19-Jun-17 16:54 35.237564 -120.639353 129 214ft 19kts
19-Jun-17 16:55 35.234992 -120.633245 50 214ft 0kts

Navigation Log

Ident Type
Flight plan parsing failed, navigation log unavailable